TimeCEST,TemperatureF,Dew PointF,Humidity,Sea Level PressureIn,VisibilityMPH,Wind Direction,Wind SpeedMPH,Gust SpeedMPH,PrecipitationIn,Events,Conditions,WindDirDegrees,DateUTC
12:20 AM,64.4,59.0,83,30.06,-9999.0,Calm,Calm,-,N/A,,Clear,0,2013-09-24 22:20:00
12:50 AM,64.4,60.8,88,30.06,-9999.0,Calm,Calm,-,N/A,,Clear,0,2013-09-24 22:50:00
1:20 AM,64.4,60.8,88,30.06,-9999.0,Calm,Calm,-,N/A,,Clear,0,2013-09-24 23:20:00
1:50 AM,62.6,57.2,82,30.06,-9999.0,Calm,Calm,-,N/A,,Clear,0,2013-09-24 23:50:00
2:20 AM,62.6,57.2,82,30.06,-9999.0,NE,1.2,-,N/A,,Clear,50,2013-09-25 00:20:00
2:50 AM,62.6,59.0,88,30.04,-9999.0,Calm,Calm,-,N/A,,Clear,0,2013-09-25 00:50:00
3:20 AM,64.4,59.0,83,30.04,-9999.0,Variable,1.2,-,N/A,,Clear,0,2013-09-25 01:20:00
3:50 AM,62.6,57.2,82,30.04,-9999.0,Calm,Calm,-,N/A,,Clear,0,2013-09-25 01:50:00
4:20 AM,62.6,59.0,88,30.04,-9999.0,NE,1.2,-,N/A,,Clear,40,2013-09-25 02:20:00
4:50 AM,62.6,59.0,88,30.04,6.2,Variable,1.2,-,N/A,,Partly Cloudy,0,2013-09-25 02:50:00
5:20 AM,62.6,59.0,88,30.01,6.2,NNE,2.3,-,N/A,,Scattered Clouds,30,2013-09-25 03:20:00
5:50 AM,62.6,59.0,88,30.04,6.2,NNE,2.3,-,N/A,,Scattered Clouds,20,2013-09-25 03:50:00
6:20 AM,62.6,59.0,88,30.01,6.2,Variable,2.3,-,N/A,,Scattered Clouds,0,2013-09-25 04:20:00
6:50 AM,62.6,57.2,82,30.04,6.2,Calm,Calm,-,N/A,,Mostly Cloudy,0,2013-09-25 04:50:00
7:20 AM,64.4,59.0,83,30.04,6.2,Calm,Calm,-,N/A,,Mostly Cloudy,0,2013-09-25 05:20:00
7:50 AM,64.4,59.0,83,30.04,6.2,ENE,2.3,-,N/A,,Mostly Cloudy,70,2013-09-25 05:50:00
8:20 AM,68.0,60.8,78,30.04,6.2,Calm,Calm,-,N/A,,Scattered Clouds,0,2013-09-25 06:20:00
8:50 AM,71.6,62.6,73,30.04,6.2,Variable,1.2,-,N/A,,Scattered Clouds,0,2013-09-25 06:50:00
9:20 AM,71.6,60.8,69,30.06,6.2,Variable,2.3,-,N/A,,Scattered Clouds,0,2013-09-25 07:20:00
9:50 AM,71.6,60.8,69,30.06,6.2,Variable,2.3,-,N/A,,Scattered Clouds,0,2013-09-25 07:50:00
10:20 AM,73.4,62.6,69,30.06,6.2,South,5.8,-,N/A,,Scattered Clouds,180,2013-09-25 08:20:00
10:50 AM,73.4,60.8,65,30.06,6.2,South,6.9,-,N/A,,Mostly Cloudy,180,2013-09-25 08:50:00
11:20 AM,75.2,62.6,65,30.06,6.2,South,8.1,-,N/A,,Mostly Cloudy,170,2013-09-25 09:20:00
11:50 AM,73.4,60.8,65,30.06,6.2,Variable,6.9,-,N/A,,Mostly Cloudy,0,2013-09-25 09:50:00
12:20 PM,73.4,60.8,65,30.06,6.2,SSW,6.9,-,N/A,,Mostly Cloudy,200,2013-09-25 10:20:00
12:50 PM,75.2,62.6,65,30.06,6.2,South,10.4,-,N/A,,Mostly Cloudy,190,2013-09-25 10:50:00
1:20 PM,75.2,62.6,65,30.04,6.2,SSW,9.2,-,N/A,,Mostly Cloudy,200,2013-09-25 11:20:00
1:50 PM,75.2,60.8,61,30.04,6.2,South,9.2,-,N/A,,Mostly Cloudy,190,2013-09-25 11:50:00
2:20 PM,77.0,60.8,57,30.04,6.2,South,9.2,-,N/A,,Mostly Cloudy,190,2013-09-25 12:20:00
2:50 PM,77.0,59.0,54,30.04,6.2,SSW,9.2,-,N/A,,Mostly Cloudy,210,2013-09-25 12:50:00
3:20 PM,77.0,59.0,54,30.04,6.2,South,9.2,-,N/A,,Mostly Cloudy,180,2013-09-25 13:20:00
3:50 PM,77.0,59.0,54,30.04,6.2,South,9.2,-,N/A,,Mostly Cloudy,190,2013-09-25 13:50:00
4:50 PM,77.0,59.0,54,30.01,6.2,South,8.1,-,N/A,,Mostly Cloudy,190,2013-09-25 14:50:00
5:20 PM,73.4,59.0,61,30.01,6.2,South,9.2,-,N/A,,Mostly Cloudy,190,2013-09-25 15:20:00
5:50 PM,73.4,60.8,65,30.01,6.2,South,8.1,-,N/A,,Scattered Clouds,190,2013-09-25 15:50:00
6:20 PM,73.4,60.8,65,30.01,6.2,SSW,5.8,-,N/A,,Scattered Clouds,200,2013-09-25 16:20:00
6:50 PM,71.6,60.8,69,30.01,6.2,South,4.6,-,N/A,,Scattered Clouds,190,2013-09-25 16:50:00
7:20 PM,71.6,60.8,69,30.01,6.2,SSW,4.6,-,N/A,,Partly Cloudy,200,2013-09-25 17:20:00
7:50 PM,69.8,59.0,68,30.01,-9999.0,WSW,3.5,-,N/A,,Clear,240,2013-09-25 17:50:00
8:20 PM,68.0,59.0,73,30.04,-9999.0,West,4.6,-,N/A,,Clear,270,2013-09-25 18:20:00
8:50 PM,68.0,59.0,73,30.04,-9999.0,West,3.5,-,N/A,,Clear,260,2013-09-25 18:50:00
9:20 PM,69.8,60.8,73,30.04,-9999.0,Variable,2.3,-,N/A,,Clear,0,2013-09-25 19:20:00
9:50 PM,68.0,59.0,73,30.04,-9999.0,West,1.2,-,N/A,,Clear,270,2013-09-25 19:50:00
10:20 PM,68.0,59.0,73,30.04,-9999.0,Calm,Calm,-,N/A,,Clear,0,2013-09-25 20:20:00
10:50 PM,66.2,59.0,78,30.04,-9999.0,Calm,Calm,-,N/A,,Clear,0,2013-09-25 20:50:00
11:20 PM,66.2,59.0,78,30.04,-9999.0,West,2.3,-,N/A,,Clear,260,2013-09-25 21:20:00
11:50 PM,66.2,59.0,78,30.04,-9999.0,WSW,3.5,-,N/A,,Clear,240,2013-09-25 21:50:00